createdAt,value
2023-11-15T00:07:55.078Z,89
2023-11-15T00:17:55.318Z,89
2023-11-15T00:27:55.452Z,89
2023-11-15T00:37:55.675Z,89
2023-11-15T00:47:55.990Z,89
2023-11-15T00:57:56.045Z,89
2023-11-15T01:07:56.242Z,89
2023-11-15T01:17:56.495Z,89
2023-11-15T01:27:56.636Z,89
2023-11-15T01:37:56.842Z,89
2023-11-15T01:47:57.116Z,89
2023-11-15T04:28:02.062Z,89
2023-11-15T04:48:00.693Z,89
2023-11-15T05:18:01.263Z,89
2023-11-15T05:28:01.417Z,89
2023-11-15T05:38:01.602Z,89
2023-11-15T05:48:01.888Z,89
2023-11-15T05:58:02.015Z,89
2023-11-15T06:08:03.393Z,89
2023-11-15T06:58:03.175Z,88
2023-11-15T07:08:03.380Z,88
2023-11-15T07:18:03.608Z,88
2023-11-15T07:38:04.010Z,88
2023-11-15T08:28:04.974Z,87
2023-11-15T08:48:05.399Z,87
2023-11-15T08:58:05.559Z,87
2023-11-15T11:18:08.380Z,85
2023-11-15T11:28:08.503Z,85
2023-11-15T11:38:08.752Z,85
2023-11-15T11:48:08.931Z,84
2023-11-15T11:58:09.106Z,83
2023-11-15T12:08:09.348Z,83
2023-11-15T12:18:09.541Z,82
2023-11-15T12:28:09.702Z,83
2023-11-15T12:38:09.905Z,83
2023-11-15T12:48:10.150Z,83
2023-11-15T12:58:10.325Z,82
2023-11-15T13:08:10.483Z,81
2023-11-15T13:18:10.735Z,81
2023-11-15T13:28:10.880Z,80
2023-11-15T13:38:11.170Z,80
2023-11-15T13:48:11.372Z,80
2023-11-15T13:58:11.475Z,80
2023-11-15T14:08:11.674Z,80
2023-11-15T14:18:12.102Z,80
2023-11-15T14:28:12.047Z,81
2023-11-15T14:48:12.533Z,82
2023-11-15T14:58:12.704Z,82
2023-11-15T15:18:16.203Z,83
2023-11-15T15:28:13.270Z,83
2023-11-15T15:38:13.457Z,84
2023-11-15T15:48:13.805Z,84
2023-11-15T15:58:13.868Z,84
2023-11-15T16:08:14.051Z,84
2023-11-15T16:18:14.286Z,84
2023-11-15T16:28:14.497Z,84
2023-11-15T16:38:14.631Z,84
2023-11-15T16:48:14.903Z,85
2023-11-15T16:58:15.063Z,85
2023-11-15T17:08:15.227Z,85
2023-11-15T17:18:15.510Z,85
2023-11-15T17:28:15.633Z,85
2023-11-15T17:48:16.086Z,85
2023-11-15T17:58:16.237Z,85
2023-11-15T18:08:16.403Z,85
2023-11-15T18:18:16.701Z,85
2023-11-15T18:28:16.861Z,85
2023-11-15T18:38:17.021Z,85
2023-11-15T18:48:17.281Z,86
2023-11-15T18:58:17.462Z,86
2023-11-15T19:08:17.658Z,86
2023-11-15T19:18:17.861Z,85
2023-11-15T19:48:18.503Z,85
2023-11-15T19:58:18.592Z,85
2023-11-15T20:08:18.875Z,85
2023-11-15T20:18:19.072Z,85
2023-11-15T20:28:19.200Z,85
2023-11-15T20:38:19.438Z,85
2023-11-15T20:48:19.784Z,85
2023-11-15T20:58:19.802Z,84
2023-11-15T21:08:20.040Z,84
2023-11-15T21:18:20.200Z,84
2023-11-15T21:28:20.415Z,84
2023-11-15T21:38:20.632Z,84
2023-11-15T21:48:20.858Z,84
2023-11-15T21:58:20.978Z,84
2023-11-15T22:08:21.181Z,84
2023-11-15T22:18:21.454Z,84
2023-11-15T22:28:21.588Z,84
2023-11-15T22:48:22.082Z,84
2023-11-15T22:58:22.197Z,84
2023-11-15T23:08:22.386Z,84
2023-11-15T23:18:22.622Z,84
2023-11-15T23:28:22.850Z,83
2023-11-15T23:38:23.015Z,83
